Time;durP1;ratioP1;P1;durP2;ratioP2;P2;SDS_P1;SDS_P2;PMS_P1;PMS_P2;Temp;Humidity;BMP_temperature;BMP_pressure;BME280_temperature;BME280_humidity;BME280_pressure;Samples;Min_cycle;Max_cycle;Signal;HPM_P1;HPM_P2
2023/10/15 00:00:07;;;;;;;9.20;2.75;;;;;;;7.22;100.00;97624.72;5020538;28;20393;-83
2023/10/15 00:02:34;;;;;;;6.40;2.47;;;;;;;7.24;100.00;97620.03;5001233;28;20394;-82
2023/10/15 00:05:01;;;;;;;9.07;2.80;;;;;;;7.20;100.00;97620.72;5000700;28;20921;-83
2023/10/15 00:07:27;;;;;;;14.68;3.42;;;;;;;7.20;100.00;97618.06;5000817;28;20399;-83
2023/10/15 00:09:55;;;;;;;5.10;2.60;;;;;;;7.23;100.00;97617.63;4982793;28;21349;-83
2023/10/15 00:12:21;;;;;;;7.30;2.35;;;;;;;7.18;100.00;97604.31;5000722;28;20819;-84
2023/10/15 00:14:50;;;;;;;5.03;2.23;;;;;;;7.22;100.00;97608.09;5001644;28;20480;-83
2023/10/15 00:17:16;;;;;;;4.60;2.60;;;;;;;7.19;100.00;97613.84;5000226;28;20403;-82
2023/10/15 00:19:43;;;;;;;9.00;2.60;;;;;;;7.15;100.00;97610.84;5001926;28;20434;-81
2023/10/15 00:22:09;;;;;;;8.68;2.50;;;;;;;7.14;100.00;97608.44;5012244;28;20406;-81
2023/10/15 00:24:37;;;;;;;10.05;2.95;;;;;;;7.10;100.00;97609.91;5012425;28;20421;-82
2023/10/15 00:27:03;;;;;;;9.88;3.30;;;;;;;7.18;100.00;97606.97;5013354;28;20399;-82
2023/10/15 00:29:30;;;;;;;6.13;2.30;;;;;;;7.19;100.00;97604.09;5012550;28;20406;-81
2023/10/15 00:31:57;;;;;;;8.05;2.70;;;;;;;7.22;100.00;97614.19;5009324;28;20399;-82
2023/10/15 00:34:24;;;;;;;6.25;2.65;;;;;;;7.26;100.00;97619.81;5007660;28;20417;-83
2023/10/15 00:36:50;;;;;;;9.97;3.00;;;;;;;7.27;100.00;97608.25;5002882;28;20405;-84
2023/10/15 00:39:22;;;;;;;5.57;2.53;;;;;;;7.37;100.00;97619.03;5004922;28;20493;-81
2023/10/15 00:41:48;;;;;;;7.00;2.70;;;;;;;7.41;100.00;97622.84;5005599;28;20407;-83
2023/10/15 00:44:16;;;;;;;7.85;2.80;;;;;;;7.47;100.00;97621.13;5000864;28;20426;-83
2023/10/15 00:46:45;;;;;;;4.47;2.55;;;;;;;7.52;100.00;97618.63;5018492;28;20432;-85
2023/10/15 00:49:13;;;;;;;5.97;2.95;;;;;;;7.51;100.00;97612.56;5022711;28;20409;-83
2023/10/15 00:51:43;;;;;;;6.65;2.45;;;;;;;7.50;100.00;97612.78;5020671;28;20772;-83
2023/10/15 00:54:14;;;;;;;5.57;2.60;;;;;;;7.54;100.00;97600.75;5022509;28;20892;-83
2023/10/15 00:56:44;;;;;;;5.68;2.53;;;;;;;7.53;100.00;97605.22;5019486;28;20397;-83
2023/10/15 00:59:17;;;;;;;7.80;2.70;;;;;;;7.49;100.00;97595.38;5019094;28;20808;-84
2023/10/15 01:04:32;;;;;;;5.53;2.30;;;;;;;7.52;100.00;97592.31;5019564;28;20420;-83
2023/10/15 01:07:13;;;;;;;7.18;2.70;;;;;;;7.50;100.00;97589.88;5020439;28;20405;-83
2023/10/15 01:09:40;;;;;;;6.55;2.58;;;;;;;7.52;100.00;97592.31;5019228;28;20403;-83
2023/10/15 01:12:23;;;;;;;8.23;2.60;;;;;;;7.49;100.00;97579.56;5019949;28;20467;-83
2023/10/15 01:14:49;;;;;;;8.17;2.50;;;;;;;7.56;100.00;97588.97;5019500;28;20742;-85
2023/10/15 01:17:16;;;;;;;7.80;2.30;;;;;;;7.61;100.00;97585.66;5019604;28;20407;-83
2023/10/15 01:19:43;;;;;;;9.30;2.67;;;;;;;7.59;100.00;97590.38;5020452;28;20400;-84
2023/10/15 01:22:17;;;;;;;5.78;2.22;;;;;;;7.62;100.00;97582.00;5020934;28;20865;-84
2023/10/15 01:24:43;;;;;;;5.25;2.20;;;;;;;7.70;100.00;97586.94;5021778;28;20435;-83
2023/10/15 01:27:11;;;;;;;9.75;2.90;;;;;;;7.69;100.00;97577.41;5019826;28;20396;-83
2023/10/15 01:29:40;;;;;;;6.47;2.38;;;;;;;7.74;100.00;97582.81;5020208;28;20400;-82
2023/10/15 01:32:11;;;;;;;4.60;2.30;;;;;;;7.78;100.00;97589.22;5020061;28;20532;-83
2023/10/15 01:34:37;;;;;;;7.32;2.58;;;;;;;7.81;100.00;97590.63;5021808;28;20393;-84
2023/10/15 01:37:10;;;;;;;7.03;2.33;;;;;;;7.85;100.00;97589.91;5023017;28;20372;-83
2023/10/15 01:39:39;;;;;;;12.77;2.90;;;;;;;7.77;100.00;97590.25;5018883;28;20427;-83
2023/10/15 01:42:06;;;;;;;5.20;2.00;;;;;;;7.84;100.00;97588.31;5018644;28;20455;-82
2023/10/15 01:44:39;;;;;;;7.53;2.33;;;;;;;7.86;100.00;97582.81;5018768;28;20443;-82
2023/10/15 01:49:31;;;;;;;6.93;2.20;;;;;;;7.87;100.00;97589.69;4999092;28;20407;-82
2023/10/15 01:52:05;;;;;;;5.20;2.35;;;;;;;7.90;100.00;97586.59;4998664;28;20399;-82
2023/10/15 01:54:32;;;;;;;15.07;2.53;;;;;;;7.87;100.00;97589.69;4999619;28;20410;-82
2023/10/15 01:56:59;;;;;;;5.30;2.30;;;;;;;7.93;100.00;97589.59;4999743;28;20406;-84
2023/10/15 01:59:26;;;;;;;4.68;1.92;;;;;;;7.98;100.00;97594.16;4999559;28;20421;-83
2023/10/15 02:01:57;;;;;;;12.68;2.78;;;;;;;7.94;100.00;97585.13;4999649;28;20406;-85
2023/10/15 02:04:25;;;;;;;7.18;2.38;;;;;;;7.98;100.00;97583.63;5000421;28;20414;-85
2023/10/15 02:06:52;;;;;;;5.55;2.40;;;;;;;7.98;100.00;97591.53;5001658;28;20466;-83
2023/10/15 02:09:22;;;;;;;5.57;2.20;;;;;;;7.94;100.00;97585.91;5002159;28;20442;-83
2023/10/15 02:11:48;;;;;;;7.15;2.50;;;;;;;7.98;100.00;97578.34;5002205;28;20447;-83
2023/10/15 02:14:27;;;;;;;6.00;2.20;;;;;;;7.99;100.00;97574.69;5007276;28;20417;-83
2023/10/15 02:16:54;;;;;;;7.82;2.13;;;;;;;7.98;100.00;97580.97;4999333;28;20402;-84
2023/10/15 02:19:40;;;;;;;10.95;3.05;;;;;;;7.86;100.00;97572.28;4999327;28;20402;-83
2023/10/15 02:22:07;;;;;;;15.55;3.00;;;;;;;7.78;100.00;97573.41;4999953;28;20782;-83
2023/10/15 02:24:34;;;;;;;4.53;2.20;;;;;;;7.91;100.00;97562.66;4999374;28;20415;-83
2023/10/15 02:27:05;;;;;;;6.85;2.53;;;;;;;7.86;100.00;97561.75;5000194;28;20394;-85
2023/10/15 02:32:08;;;;;;;4.68;2.70;;;;;;;7.93;100.00;97557.97;5000488;28;20489;-83
2023/10/15 02:34:40;;;;;;;5.50;2.42;;;;;;;7.95;100.00;97555.91;5005971;28;20434;-82
2023/10/15 02:37:10;;;;;;;4.43;2.30;;;;;;;7.93;100.00;97557.16;5002322;28;20834;-84
2023/10/15 02:39:39;;;;;;;3.33;2.00;;;;;;;7.92;100.00;97558.19;4999638;28;20398;-83
2023/10/15 02:42:05;;;;;;;6.50;2.10;;;;;;;7.90;100.00;97557.59;4998607;28;20410;-84
2023/10/15 02:44:32;;;;;;;5.32;2.30;;;;;;;7.90;100.00;97558.41;4999317;28;20802;-84
2023/10/15 02:47:07;;;;;;;8.27;2.53;;;;;;;7.88;100.00;97552.59;5018118;28;20409;-81
2023/10/15 02:49:53;;;;;;;5.03;2.20;;;;;;;7.90;100.00;97561.03;5024083;28;20451;-83
2023/10/15 02:52:20;;;;;;;8.65;2.50;;;;;;;7.93;100.00;97559.78;5025034;28;20405;-83
2023/10/15 02:54:46;;;;;;;4.88;2.25;;;;;;;7.96;100.00;97554.88;5024782;28;20404;-83
2023/10/15 02:57:15;;;;;;;6.88;2.47;;;;;;;7.92;100.00;97561.63;5026202;28;20397;-83
2023/10/15 02:59:50;;;;;;;7.05;2.70;;;;;;;7.91;100.00;97565.28;5021981;28;20397;-83
2023/10/15 03:02:18;;;;;;;7.43;2.90;;;;;;;7.93;100.00;97559.78;5022522;28;20393;-83
2023/10/15 03:04:49;;;;;;;6.63;2.38;;;;;;;7.94;100.00;97558.75;5021835;28;20515;-83
2023/10/15 03:07:19;;;;;;;6.13;2.65;;;;;;;7.97;100.00;97555.69;5022945;28;20459;-84
2023/10/15 03:09:56;;;;;;;7.43;2.45;;;;;;;7.98;100.00;97558.06;5026537;28;20471;-82
2023/10/15 03:12:23;;;;;;;8.48;2.92;;;;;;;7.91;100.00;97559.22;5022138;28;20407;-83
2023/10/15 03:14:51;;;;;;;4.53;2.38;;;;;;;7.86;100.00;97561.75;5022054;28;20436;-82
2023/10/15 03:17:25;;;;;;;6.78;2.60;;;;;;;7.81;100.00;97557.16;5022030;28;20893;-83
2023/10/15 03:19:55;;;;;;;9.20;2.67;;;;;;;7.73;100.00;97566.22;5024833;28;20396;-82
2023/10/15 03:22:24;;;;;;;5.18;2.78;;;;;;;7.69;100.00;97558.97;5021757;28;20401;-84
2023/10/15 03:24:50;;;;;;;9.15;2.92;;;;;;;7.60;100.00;97563.78;5022761;28;20413;-83
2023/10/15 03:27:22;;;;;;;12.35;3.25;;;;;;;7.53;100.00;97564.91;5022712;28;20397;-83
2023/10/15 03:29:48;;;;;;;6.75;2.90;;;;;;;7.55;100.00;97552.31;5022156;28;20809;-83
2023/10/15 03:32:15;;;;;;;14.55;3.60;;;;;;;7.43;100.00;97548.88;5022285;28;20503;-84
2023/10/15 03:34:43;;;;;;;7.90;3.53;;;;;;;7.37;100.00;97559.25;5022729;28;20464;-83
2023/10/15 03:37:14;;;;;;;7.05;2.70;;;;;;;7.36;100.00;97551.63;5022336;28;20432;-83
2023/10/15 03:42:10;;;;;;;9.52;3.20;;;;;;;7.40;100.00;97560.66;5022330;28;20408;-84
2023/10/15 03:44:37;;;;;;;10.32;3.67;;;;;;;7.42;100.00;97565.69;5022588;28;20427;-84
2023/10/15 03:47:04;;;;;;;9.95;3.47;;;;;;;7.45;100.00;97566.03;5023531;28;20401;-83
2023/10/15 03:49:31;;;;;;;13.88;4.20;;;;;;;7.40;100.00;97560.66;5021429;28;20397;-83
2023/10/15 03:51:58;;;;;;;6.07;3.10;;;;;;;7.46;100.00;97567.66;5021369;28;20401;-83
2023/10/15 03:54:25;;;;;;;11.40;3.47;;;;;;;7.39;100.00;97562.50;5022668;28;20407;-84
2023/10/15 03:56:52;;;;;;;13.70;3.35;;;;;;;7.38;100.00;97554.81;5021444;28;20420;-83
2023/10/15 03:59:19;;;;;;;7.72;3.00;;;;;;;7.45;100.00;97560.78;5021074;28;20439;-84
2023/10/15 04:01:48;;;;;;;7.68;3.00;;;;;;;7.47;100.00;97557.91;5019662;28;20501;-84
2023/10/15 04:04:20;;;;;;;7.82;3.45;;;;;;;7.46;100.00;97562.38;5019407;28;20420;-83
2023/10/15 04:07:03;;;;;;;6.80;3.00;;;;;;;7.52;100.00;97556.19;5019749;28;20471;-83
2023/10/15 04:09:33;;;;;;;7.88;3.50;;;;;;;7.49;100.00;97559.31;5018753;28;20404;-85
2023/10/15 04:11:59;;;;;;;7.53;2.80;;;;;;;7.55;100.00;97565.50;5019421;28;20877;-83
2023/10/15 04:14:29;;;;;;;5.68;2.83;;;;;;;7.58;100.00;97560.59;5017022;28;20449;-82
2023/10/15 04:16:57;;;;;;;5.97;2.92;;;;;;;7.62;100.00;97563.56;5001194;28;20474;-83
2023/10/15 04:19:29;;;;;;;4.10;2.83;;;;;;;7.62;100.00;97566.19;5002289;28;20395;-83
2023/10/15 04:22:13;;;;;;;7.18;2.72;;;;;;;7.63;100.00;97565.97;5002614;28;20438;-83
2023/10/15 04:24:41;;;;;;;5.97;2.77;;;;;;;7.67;100.00;97563.66;5000082;28;20543;-83
2023/10/15 04:27:15;;;;;;;7.18;3.28;;;;;;;7.67;100.00;97561.81;5000892;28;20402;-86
2023/10/15 04:29:50;;;;;;;8.30;3.60;;;;;;;7.69;100.00;97562.41;5002381;28;20777;-85
2023/10/15 04:32:28;;;;;;;7.03;3.30;;;;;;;7.66;100.00;97564.72;5002379;28;20410;-84
2023/10/15 04:34:56;;;;;;;5.03;2.85;;;;;;;7.65;100.00;97563.91;5001749;28;20407;-83
2023/10/15 04:37:23;;;;;;;6.70;2.72;;;;;;;7.64;100.00;97564.94;5002684;28;20427;-81
2023/10/15 04:39:55;;;;;;;7.97;3.15;;;;;;;7.60;100.00;97566.41;5000738;28;20425;-82
2023/10/15 04:42:24;;;;;;;10.02;3.40;;;;;;;7.56;100.00;97559.19;5006715;28;20417;-84
2023/10/15 04:44:50;;;;;;;6.43;3.22;;;;;;;7.54;100.00;97569.16;5002545;28;20485;-85
2023/10/15 04:47:27;;;;;;;7.65;3.72;;;;;;;7.48;100.00;97564.78;5019665;28;20397;-83
2023/10/15 04:49:57;;;;;;;5.30;3.22;;;;;;;7.48;100.00;97572.69;5019946;28;20409;-84
2023/10/15 04:52:24;;;;;;;9.25;3.13;;;;;;;7.48;100.00;97570.06;5020001;28;20403;-84
2023/10/15 04:54:55;;;;;;;7.67;3.20;;;;;;;7.50;100.00;97568.00;5019589;28;20520;-85
2023/10/15 04:57:23;;;;;;;9.10;3.60;;;;;;;7.48;100.00;97560.31;5021338;28;20399;-86
2023/10/15 04:59:49;;;;;;;7.60;3.47;;;;;;;7.47;100.00;97566.63;5022906;28;20508;-83
2023/10/15 05:02:15;;;;;;;6.30;3.33;;;;;;;7.46;100.00;97569.47;5018386;28;20495;-83
2023/10/15 05:04:41;;;;;;;6.75;3.40;;;;;;;7.42;100.00;97568.34;5000654;28;20513;-83
2023/10/15 05:07:07;;;;;;;16.70;4.47;;;;;;;7.41;100.00;97570.16;5017996;28;20397;-83
2023/10/15 05:09:39;;;;;;;14.57;4.70;;;;;;;7.41;100.00;97579.91;5017626;28;20435;-82
2023/10/15 05:12:07;;;;;;;12.30;4.22;;;;;;;7.31;100.00;97570.72;5019250;28;20440;-80
2023/10/15 05:14:33;;;;;;;7.72;3.60;;;;;;;7.28;100.00;97573.00;5018496;28;20404;-80
2023/10/15 05:17:00;;;;;;;6.03;3.60;;;;;;;7.31;100.00;97575.16;5017832;28;20408;-82
2023/10/15 05:19:26;;;;;;;9.98;3.97;;;;;;;7.27;100.00;97572.19;5016559;28;20401;-83
2023/10/15 05:21:52;;;;;;;7.40;4.00;;;;;;;7.28;100.00;97578.28;5016903;28;20443;-82
2023/10/15 05:24:18;;;;;;;8.68;3.85;;;;;;;7.27;100.00;97574.03;5016775;28;20999;-83
2023/10/15 05:26:46;;;;;;;5.03;3.40;;;;;;;7.28;100.00;97576.44;5015912;28;20435;-81
2023/10/15 05:29:15;;;;;;;6.35;3.50;;;;;;;7.29;100.00;97575.38;5016710;28;20431;-81
2023/10/15 05:31:41;;;;;;;6.75;3.55;;;;;;;7.30;100.00;97579.63;5016882;28;20888;-82
2023/10/15 05:34:08;;;;;;;7.65;4.25;;;;;;;7.30;100.00;97571.72;5016994;28;20408;-80
2023/10/15 05:36:34;;;;;;;8.13;4.20;;;;;;;7.27;100.00;97572.19;5016758;28;20808;-83
2023/10/15 05:39:00;;;;;;;5.75;4.38;;;;;;;7.23;100.00;97571.03;5017137;28;20392;-84
2023/10/15 05:41:31;;;;;;;6.65;4.20;;;;;;;7.22;100.00;97574.69;5017134;28;20397;-81
2023/10/15 05:43:57;;;;;;;8.45;4.15;;;;;;;7.20;100.00;97578.59;5016363;28;20417;-83
2023/10/15 05:46:25;;;;;;;8.45;4.03;;;;;;;7.20;100.00;97587.28;5017105;28;20464;-81
2023/10/15 05:48:51;;;;;;;7.30;3.90;;;;;;;7.24;100.00;97592.91;5020872;28;20405;-83
2023/10/15 05:51:17;;;;;;;10.30;5.30;;;;;;;7.24;100.00;97603.44;5017761;28;20497;-83
2023/10/15 05:53:44;;;;;;;9.25;4.30;;;;;;;7.28;100.00;97604.59;5014508;28;20827;-83
2023/10/15 05:56:10;;;;;;;13.40;5.53;;;;;;;7.27;100.00;97610.88;4997761;28;20406;-82
2023/10/15 05:58:36;;;;;;;7.28;4.53;;;;;;;7.30;100.00;97610.41;4997534;28;20399;-82
2023/10/15 06:01:03;;;;;;;9.05;4.63;;;;;;;7.31;100.00;97617.31;4997396;28;20422;-85
2023/10/15 06:03:30;;;;;;;11.82;4.85;;;;;;;7.29;100.00;97614.88;4997375;28;20407;-82
2023/10/15 06:05:57;;;;;;;16.85;5.78;;;;;;;7.24;100.00;97606.06;4998290;28;20502;-83
2023/10/15 06:08:23;;;;;;;9.00;4.97;;;;;;;7.27;100.00;97613.53;4998083;28;20429;-82
2023/10/15 06:10:50;;;;;;;12.73;5.22;;;;;;;7.26;100.00;97615.34;4996760;28;20399;-81
2023/10/15 06:13:16;;;;;;;13.15;5.53;;;;;;;7.30;100.00;97615.69;4997037;28;20399;-81
2023/10/15 06:15:42;;;;;;;10.43;5.20;;;;;;;7.32;100.00;97616.28;4996495;28;20887;-84
2023/10/15 06:18:11;;;;;;;10.50;5.68;;;;;;;7.31;100.00;97612.84;4997002;28;20402;-83
2023/10/15 06:20:39;;;;;;;11.07;6.47;;;;;;;7.31;100.00;97619.94;4997861;28;20863;-82
2023/10/15 06:23:07;;;;;;;6.38;5.45;;;;;;;7.32;100.00;97627.63;4996450;28;20406;-83
2023/10/15 06:25:38;;;;;;;10.15;5.68;;;;;;;7.34;100.00;97630.84;4997420;28;20414;-83
2023/10/15 06:28:05;;;;;;;8.40;5.40;;;;;;;7.37;100.00;97627.72;4996845;28;20398;-83
2023/10/15 06:30:31;;;;;;;6.43;5.10;;;;;;;7.40;100.00;97626.50;4997958;28;20418;-83
2023/10/15 06:32:58;;;;;;;10.00;6.18;;;;;;;7.39;100.00;97627.50;4997349;28;20425;-82
2023/10/15 06:35:27;;;;;;;11.55;6.35;;;;;;;7.36;100.00;97627.97;4997808;28;20407;-82
2023/10/15 06:37:56;;;;;;;9.07;6.10;;;;;;;7.38;100.00;97628.53;4997675;28;20494;-82
2023/10/15 06:40:22;;;;;;;14.73;7.03;;;;;;;7.37;100.00;97630.38;4998513;28;20410;-84
2023/10/15 06:42:48;;;;;;;12.27;6.82;;;;;;;7.41;100.00;97635.19;4997743;28;20410;-84
2023/10/15 06:45:20;;;;;;;11.27;6.47;;;;;;;7.41;100.00;97633.38;4997138;28;20486;-83
2023/10/15 06:47:47;;;;;;;20.20;8.48;;;;;;;7.37;100.00;97632.19;4997499;28;20486;-80
2023/10/15 06:50:14;;;;;;;11.15;6.95;;;;;;;7.42;100.00;97645.50;4999671;28;20453;-83
2023/10/15 06:52:42;;;;;;;8.45;5.80;;;;;;;7.49;100.00;97648.84;5000856;28;20406;-82
2023/10/15 06:55:11;;;;;;;7.97;5.25;;;;;;;7.57;100.00;97653.81;4999624;28;20403;-83
2023/10/15 06:57:40;;;;;;;7.75;5.28;;;;;;;7.65;100.00;97653.50;4998678;28;20473;-84
2023/10/15 07:00:08;;;;;;;9.15;5.95;;;;;;;7.70;100.00;97661.50;4999147;28;20460;-84
2023/10/15 07:02:34;;;;;;;11.73;5.90;;;;;;;7.75;100.00;97656.34;5015076;28;20474;-82
2023/10/15 07:05:01;;;;;;;8.23;5.30;;;;;;;7.78;100.00;97660.38;4998221;28;20525;-84
2023/10/15 07:07:28;;;;;;;9.93;5.43;;;;;;;7.80;100.00;97663.59;4998891;28;20815;-85
2023/10/15 07:09:54;;;;;;;11.80;5.97;;;;;;;7.82;100.00;97671.28;5003750;28;20526;-84
2023/10/15 07:12:22;;;;;;;12.93;5.80;;;;;;;7.83;100.00;97665.75;4998098;28;20413;-82
2023/10/15 07:14:48;;;;;;;13.82;5.68;;;;;;;7.86;100.00;97675.06;5002724;28;20940;-84
2023/10/15 07:17:17;;;;;;;10.05;5.00;;;;;;;8.01;100.00;97667.53;5018036;28;20967;-82
2023/10/15 07:19:43;;;;;;;11.13;5.40;;;;;;;8.16;100.00;97670.53;5016812;28;20403;-82
2023/10/15 07:22:09;;;;;;;12.05;5.05;;;;;;;8.22;100.00;97669.59;5017644;28;20401;-82
2023/10/15 07:24:35;;;;;;;8.30;4.10;;;;;;;8.37;100.00;97658.63;5016865;28;20424;-82
2023/10/15 07:27:01;;;;;;;5.78;3.88;;;;;;;8.62;100.00;97664.47;5017282;28;20427;-82
2023/10/15 07:29:29;;;;;;;18.15;4.90;;;;;;;8.54;100.00;97670.91;5018539;28;20399;-82
2023/10/15 07:31:55;;;;;;;9.03;4.27;;;;;;;8.87;100.00;97672.13;5017946;28;20397;-84
2023/10/15 07:34:26;;;;;;;10.40;3.63;;;;;;;9.01;100.00;97677.94;5018378;28;20460;-83
2023/10/15 07:36:55;;;;;;;8.23;3.40;;;;;;;9.14;100.00;97685.59;5003187;28;20416;-82
2023/10/15 07:39:22;;;;;;;11.40;3.97;;;;;;;9.02;100.00;97682.19;5019663;28;20881;-81
2023/10/15 07:41:48;;;;;;;8.52;3.53;;;;;;;9.14;100.00;97688.22;5019797;28;20408;-82
2023/10/15 07:44:15;;;;;;;6.80;3.10;;;;;;;9.26;100.00;97694.28;5018668;28;20515;-84
2023/10/15 07:46:45;;;;;;;10.43;3.33;;;;;;;9.37;100.00;97688.16;5019318;28;20401;-84
2023/10/15 07:49:16;;;;;;;9.90;3.30;;;;;;;9.51;100.00;97681.56;5020387;28;20495;-83
2023/10/15 07:51:42;;;;;;;5.93;2.72;;;;;;;9.66;100.00;97683.66;5019944;28;20404;-82
2023/10/15 07:54:08;;;;;;;6.53;2.40;;;;;;;9.77;100.00;97685.47;5020435;28;20483;-83
2023/10/15 07:56:35;;;;;;;9.00;3.35;;;;;;;9.66;100.00;97695.03;5023022;28;20853;-81
2023/10/15 07:59:04;;;;;;;9.23;2.60;;;;;;;9.76;100.00;97690.97;5022150;28;20781;-82
2023/10/15 08:01:30;;;;;;;11.02;3.05;;;;;;;9.86;100.00;97689.28;5020084;28;20396;-81
2023/10/15 08:03:59;;;;;;;6.00;2.10;;;;;;;10.10;100.00;97703.19;5020556;28;20409;-83
2023/10/15 08:06:25;;;;;;;5.15;2.00;;;;;;;10.25;100.00;97698.16;5025724;28;20397;-83
2023/10/15 08:08:51;;;;;;;6.57;2.10;;;;;;;10.31;100.00;97693.75;5024028;28;20809;-84
2023/10/15 08:11:18;;;;;;;6.50;1.83;;;;;;;10.67;100.00;97701.19;5026538;28;20440;-84
2023/10/15 08:13:44;;;;;;;5.40;2.10;;;;;;;10.75;100.00;97700.75;5024098;28;20396;-82
2023/10/15 08:16:10;;;;;;;10.48;2.33;;;;;;;10.80;100.00;97698.19;5026267;28;20492;-83
2023/10/15 08:18:36;;;;;;;8.80;2.23;;;;;;;10.93;100.00;97712.91;5025579;28;20424;-82
2023/10/15 08:21:04;;;;;;;7.00;2.20;;;;;;;10.74;100.00;97698.38;5026357;28;20729;-82
2023/10/15 08:23:30;;;;;;;8.15;2.50;;;;;;;10.62;100.00;97698.44;5006477;28;20397;-83
2023/10/15 08:25:56;;;;;;;10.48;2.20;;;;;;;10.39;100.00;97701.28;5025263;28;20742;-84
2023/10/15 08:28:22;;;;;;;9.65;2.30;;;;;;;10.33;100.00;97716.28;5023660;28;20899;-83
2023/10/15 08:30:54;;;;;;;7.45;2.50;;;;;;;10.35;100.00;97718.69;5020361;28;20768;-82
2023/10/15 08:33:20;;;;;;;10.25;2.53;;;;;;;10.20;100.00;97706.03;5020821;28;20404;-83
2023/10/15 08:35:46;;;;;;;9.13;2.90;;;;;;;10.17;100.00;97703.84;5021228;28;20405;-83
2023/10/15 08:38:14;;;;;;;11.10;3.00;;;;;;;10.10;100.00;97705.84;5023658;28;20397;-83
2023/10/15 08:40:41;;;;;;;12.20;2.65;;;;;;;9.93;100.00;97713.75;5022129;28;20447;-84
2023/10/15 08:43:13;;;;;;;8.48;2.22;;;;;;;9.94;100.00;97718.00;5022022;28;20749;-83
2023/10/15 08:45:42;;;;;;;14.77;2.60;;;;;;;9.80;100.00;97707.97;5023187;28;20476;-83
2023/10/15 08:48:11;;;;;;;12.90;2.67;;;;;;;9.67;100.00;97706.41;5023702;28;20397;-83
2023/10/15 08:50:40;;;;;;;8.85;2.40;;;;;;;9.83;100.00;97712.78;5027571;28;20440;-81
2023/10/15 08:53:07;;;;;;;6.80;2.20;;;;;;;10.25;100.00;97719.34;5026484;28;20407;-84
2023/10/15 08:55:36;;;;;;;10.50;2.40;;;;;;;10.55;100.00;97723.50;5024261;28;20408;-83
2023/10/15 08:58:06;;;;;;;6.00;2.53;;;;;;;10.75;100.00;97721.16;5021215;28;20416;-82
2023/10/15 09:00:33;;;;;;;5.75;1.90;;;;;;;11.03;100.00;97720.19;5021162;28;20433;-82
2023/10/15 09:03:00;;;;;;;6.20;2.30;;;;;;;10.98;100.00;97728.88;5023893;28;20409;-83
2023/10/15 09:05:30;;;;;;;8.20;2.20;;;;;;;10.77;100.00;97722.50;5026552;28;20808;-83
2023/10/15 09:07:59;;;;;;;8.57;1.90;;;;;;;10.69;100.00;97727.41;5023456;28;20785;-82
2023/10/15 09:10:25;;;;;;;4.78;1.75;;;;;;;10.51;100.00;97732.97;5024071;28;20404;-84
2023/10/15 09:12:52;;;;;;;10.57;2.40;;;;;;;10.00;100.00;97740.84;5022804;28;20900;-84
2023/10/15 09:15:19;;;;;;;9.98;2.67;;;;;;;9.47;100.00;97730.59;5023589;28;20400;-84
2023/10/15 09:17:51;;;;;;;6.70;2.30;;;;;;;8.91;100.00;97728.69;5022882;28;20416;-83
2023/10/15 09:20:26;;;;;;;11.13;2.13;;;;;;;8.52;100.00;97723.09;5006235;28;20427;-85
2023/10/15 09:22:54;;;;;;;9.70;3.10;;;;;;;8.33;100.00;97723.44;5021291;28;20401;-84
2023/10/15 09:25:22;;;;;;;12.65;3.28;;;;;;;8.18;100.00;97725.66;5020534;28;20425;-84
2023/10/15 09:27:48;;;;;;;6.22;2.80;;;;;;;8.26;100.00;97730.63;5020836;28;20409;-85
2023/10/15 09:30:20;;;;;;;8.75;3.50;;;;;;;8.40;100.00;97746.03;5021324;28;20843;-84
2023/10/15 09:32:47;;;;;;;7.22;3.13;;;;;;;8.65;100.00;97745.78;5021468;28;20432;-84
2023/10/15 09:35:13;;;;;;;12.20;3.92;;;;;;;8.72;100.00;97751.75;5022966;28;20404;-84
2023/10/15 09:37:39;;;;;;;11.40;3.83;;;;;;;8.72;100.00;97754.41;5027116;28;20421;-83
2023/10/15 09:40:10;;;;;;;17.33;4.22;;;;;;;8.69;100.00;97752.22;5025740;28;20408;-83
2023/10/15 09:42:37;;;;;;;10.23;4.00;;;;;;;9.19;100.00;97749.88;5020907;28;20443;-83
2023/10/15 09:45:05;;;;;;;4.82;2.63;;;;;;;9.67;100.00;97746.06;5021767;28;20424;-83
2023/10/15 09:47:33;;;;;;;6.88;3.05;;;;;;;10.06;100.00;97744.41;5019705;28;20401;-83
2023/10/15 09:50:01;;;;;;;8.80;2.88;;;;;;;10.04;100.00;97751.75;5007099;28;20417;-84
2023/10/15 09:52:29;;;;;;;12.38;3.38;;;;;;;10.23;100.00;97755.81;5008904;28;20401;-82
2023/10/15 09:54:57;;;;;;;7.38;2.92;;;;;;;10.91;100.00;97744.13;5002413;28;20883;-85
2023/10/15 09:57:25;;;;;;;2.97;2.17;;;;;;;11.94;100.00;97745.13;5016666;28;20397;-83
2023/10/15 09:59:53;;;;;;;4.43;1.90;;;;;;;12.78;100.00;97739.94;5020574;28;20475;-83
2023/10/15 10:02:24;;;;;;;6.68;2.10;;;;;;;13.53;100.00;97744.09;5013539;28;20407;-83
2023/10/15 10:05:16;;;;;;;4.57;2.05;;;;;;;13.56;100.00;97736.38;5012144;28;20428;-84
2023/10/15 10:07:55;;;;;;;2.50;1.48;;;;;;;13.49;100.00;97738.50;5006194;28;20443;-83
2023/10/15 10:10:44;;;;;;;6.13;1.85;;;;;;;13.00;100.00;97734.53;5008317;28;20421;-84
2023/10/15 10:13:42;;;;;;;2.97;1.53;;;;;;;12.48;100.00;97715.88;5006740;28;20458;-82
2023/10/15 10:16:18;;;;;;;4.47;1.52;;;;;;;12.22;100.00;97723.63;5011184;28;20960;-83
2023/10/15 10:18:44;;;;;;;4.65;1.73;;;;;;;12.11;100.00;97729.09;5014009;28;20405;-83
2023/10/15 10:21:15;;;;;;;4.53;1.73;;;;;;;11.52;100.00;97715.75;5010155;28;20403;-85
2023/10/15 10:23:41;;;;;;;3.40;1.67;;;;;;;11.13;100.00;97713.16;5003994;28;20414;-82
2023/10/15 10:26:12;;;;;;;4.25;1.77;;;;;;;10.92;100.00;97727.19;5009816;28;20435;-81
2023/10/15 10:28:38;;;;;;;8.43;2.10;;;;;;;10.85;100.00;97732.69;5008928;28;20410;-81
2023/10/15 10:31:07;;;;;;;8.60;2.25;;;;;;;11.03;100.00;97728.94;5007165;28;20403;-81
2023/10/15 10:33:49;;;;;;;4.28;1.70;;;;;;;11.13;100.00;97723.75;5007847;28;20402;-82
2023/10/15 10:36:18;;;;;;;9.70;2.13;;;;;;;11.02;100.00;97718.59;5006302;28;20418;-82
2023/10/15 10:38:56;;;;;;;4.90;2.20;;;;;;;11.36;100.00;97719.25;5009597;28;20460;-82
2023/10/15 10:41:34;;;;;;;2.13;1.42;;;;;;;11.91;100.00;97727.84;5005512;28;20465;-84
2023/10/15 10:44:00;;;;;;;9.15;1.80;;;;;;;11.80;100.00;97733.31;5015705;28;20402;-83
2023/10/15 10:46:26;;;;;;;6.40;2.10;;;;;;;12.21;100.00;97718.56;5012639;28;20900;-83
2023/10/15 10:49:04;;;;;;;3.73;1.40;;;;;;;12.57;100.00;97716.97;5010286;28;20410;-84
2023/10/15 10:51:33;;;;;;;8.25;1.52;;;;;;;13.09;100.00;97735.63;5006851;28;20917;-82
2023/10/15 10:54:25;;;;;;;5.63;2.33;;;;;;;12.99;100.00;97732.91;5008935;28;20440;-83
2023/10/15 10:56:59;;;;;;;6.10;1.70;;;;;;;12.57;100.00;97724.94;5018595;28;20422;-80
2023/10/15 10:59:28;;;;;;;4.10;1.67;;;;;;;12.24;100.00;97713.56;5008081;28;20881;-84
2023/10/15 11:01:54;;;;;;;2.78;1.30;;;;;;;11.87;100.00;97726.78;5010522;28;20406;-84
2023/10/15 11:04:21;;;;;;;5.15;1.55;;;;;;;11.22;100.00;97726.78;5003693;28;20422;-82
2023/10/15 11:06:48;;;;;;;5.35;1.60;;;;;;;10.90;100.00;97721.34;5004429;28;20407;-83
2023/10/15 11:09:15;;;;;;;2.83;1.73;;;;;;;10.67;100.00;97730.31;5015213;28;20402;-84
2023/10/15 11:11:42;;;;;;;2.90;1.60;;;;;;;10.57;100.00;97732.81;5006862;28;20398;-85
2023/10/15 11:14:12;;;;;;;6.32;1.55;;;;;;;10.41;100.00;97728.31;5022359;28;20447;-85
2023/10/15 11:16:39;;;;;;;4.90;1.80;;;;;;;10.18;100.00;97731.13;5018885;28;20431;-85
2023/10/15 11:19:14;;;;;;;4.87;1.60;;;;;;;9.97;100.00;97720.19;5015855;28;20407;-83
2023/10/15 11:21:40;;;;;;;4.38;1.90;;;;;;;9.99;100.00;97735.81;5011225;28;20414;-83
2023/10/15 11:24:09;;;;;;;3.50;1.60;;;;;;;9.99;100.00;97746.38;5008755;28;20393;-83
2023/10/15 11:26:36;;;;;;;7.75;2.10;;;;;;;9.71;100.00;97745.34;5003594;28;20433;-82
2023/10/15 11:29:02;;;;;;;7.90;2.10;;;;;;;9.80;100.00;97737.84;5004412;28;20398;-82
2023/10/15 11:31:29;;;;;;;5.18;1.73;;;;;;;9.88;100.00;97739.31;5011245;28;20396;-82
2023/10/15 11:33:55;;;;;;;4.00;1.70;;;;;;;9.87;100.00;97737.69;5009178;28;20409;-83
2023/10/15 11:36:23;;;;;;;3.47;1.80;;;;;;;9.93;100.00;97734.09;5012053;28;20452;-83
2023/10/15 11:38:51;;;;;;;6.00;2.25;;;;;;;10.03;100.00;97742.22;5004478;28;20413;-83
2023/10/15 11:41:19;;;;;;;4.53;1.70;;;;;;;10.83;100.00;97742.69;5012141;28;20401;-82
2023/10/15 11:43:49;;;;;;;4.97;1.98;;;;;;;11.56;100.00;97746.03;5021272;28;20903;-83
2023/10/15 11:46:19;;;;;;;5.03;2.22;;;;;;;11.92;100.00;97745.38;5005635;28;20872;-84